sensor_id;sensor_type;location;lat;lon;timestamp;P1;durP1;ratioP1;P2;durP2;ratioP2
70071;SDS011;57434;42.794;23.302;2023-11-21T00:00:11;38.42;;;14.35;;
70071;SDS011;57434;42.794;23.302;2023-11-21T00:01:13;38.92;;;13.93;;
70071;SDS011;57434;42.794;23.302;2023-11-21T00:02:15;44.53;;;18.48;;
70071;SDS011;57434;42.794;23.302;2023-11-21T00:03:17;79.53;;;41.30;;
70071;SDS011;57434;42.794;23.302;2023-11-21T00:04:18;105.53;;;57.58;;
70071;SDS011;57434;42.794;23.302;2023-11-21T00:05:20;87.82;;;47.03;;
70071;SDS011;57434;42.794;23.302;2023-11-21T00:06:21;89.72;;;45.53;;
70071;SDS011;57434;42.794;23.302;2023-11-21T00:07:23;85.53;;;40.40;;
70071;SDS011;57434;42.794;23.302;2023-11-21T00:08:24;67.20;;;29.88;;
70071;SDS011;57434;42.794;23.302;2023-11-21T00:09:26;45.83;;;22.38;;
70071;SDS011;57434;42.794;23.302;2023-11-21T00:10:27;34.67;;;16.80;;
70071;SDS011;57434;42.794;23.302;2023-11-21T00:11:29;28.23;;;14.07;;
70071;SDS011;57434;42.794;23.302;2023-11-21T00:12:31;23.90;;;12.68;;
70071;SDS011;57434;42.794;23.302;2023-11-21T00:13:32;24.80;;;12.00;;
70071;SDS011;57434;42.794;23.302;2023-11-21T00:14:34;27.73;;;13.52;;
70071;SDS011;57434;42.794;23.302;2023-11-21T00:15:35;23.52;;;11.10;;
70071;SDS011;57434;42.794;23.302;2023-11-21T00:16:37;20.58;;;9.73;;
70071;SDS011;57434;42.794;23.302;2023-11-21T00:17:39;24.13;;;11.30;;
70071;SDS011;57434;42.794;23.302;2023-11-21T00:18:41;24.48;;;11.40;;
70071;SDS011;57434;42.794;23.302;2023-11-21T00:19:42;22.27;;;11.27;;
70071;SDS011;57434;42.794;23.302;2023-11-21T00:20:44;20.25;;;10.18;;
70071;SDS011;57434;42.794;23.302;2023-11-21T00:21:45;21.40;;;10.40;;
70071;SDS011;57434;42.794;23.302;2023-11-21T00:23:47;19.77;;;9.90;;
70071;SDS011;57434;42.794;23.302;2023-11-21T00:24:48;22.03;;;9.40;;
70071;SDS011;57434;42.794;23.302;2023-11-21T00:25:50;20.05;;;9.90;;
70071;SDS011;57434;42.794;23.302;2023-11-21T00:26:52;20.75;;;9.57;;
70071;SDS011;57434;42.794;23.302;2023-11-21T00:27:53;18.95;;;10.13;;
70071;SDS011;57434;42.794;23.302;2023-11-21T00:28:55;20.65;;;9.65;;
70071;SDS011;57434;42.794;23.302;2023-11-21T00:29:56;20.88;;;10.13;;
70071;SDS011;57434;42.794;23.302;2023-11-21T00:30:58;20.70;;;9.77;;
70071;SDS011;57434;42.794;23.302;2023-11-21T00:31:59;25.85;;;11.10;;
70071;SDS011;57434;42.794;23.302;2023-11-21T00:33:01;28.35;;;11.27;;
70071;SDS011;57434;42.794;23.302;2023-11-21T00:34:03;28.58;;;10.85;;
70071;SDS011;57434;42.794;23.302;2023-11-21T00:35:04;28.53;;;12.07;;
70071;SDS011;57434;42.794;23.302;2023-11-21T00:36:06;22.92;;;10.75;;
70071;SDS011;57434;42.794;23.302;2023-11-21T00:37:08;27.48;;;11.20;;
70071;SDS011;57434;42.794;23.302;2023-11-21T00:38:09;31.42;;;11.48;;
70071;SDS011;57434;42.794;23.302;2023-11-21T00:39:11;25.48;;;10.70;;
70071;SDS011;57434;42.794;23.302;2023-11-21T00:40:13;29.45;;;11.10;;
70071;SDS011;57434;42.794;23.302;2023-11-21T00:41:14;22.80;;;9.88;;
70071;SDS011;57434;42.794;23.302;2023-11-21T00:42:16;27.65;;;10.02;;
70071;SDS011;57434;42.794;23.302;2023-11-21T00:43:17;25.63;;;10.32;;
70071;SDS011;57434;42.794;23.302;2023-11-21T00:44:19;27.27;;;10.52;;
70071;SDS011;57434;42.794;23.302;2023-11-21T00:45:21;25.50;;;9.47;;
70071;SDS011;57434;42.794;23.302;2023-11-21T00:46:22;21.73;;;9.77;;
70071;SDS011;57434;42.794;23.302;2023-11-21T00:47:24;23.45;;;9.48;;
70071;SDS011;57434;42.794;23.302;2023-11-21T00:48:25;20.77;;;9.27;;
70071;SDS011;57434;42.794;23.302;2023-11-21T00:49:27;22.75;;;8.73;;
70071;SDS011;57434;42.794;23.302;2023-11-21T00:50:28;19.45;;;8.70;;
70071;SDS011;57434;42.794;23.302;2023-11-21T00:51:30;22.10;;;8.82;;
70071;SDS011;57434;42.794;23.302;2023-11-21T00:52:32;21.70;;;7.45;;
70071;SDS011;57434;42.794;23.302;2023-11-21T00:53:33;20.20;;;8.60;;
70071;SDS011;57434;42.794;23.302;2023-11-21T00:54:35;19.75;;;8.85;;
70071;SDS011;57434;42.794;23.302;2023-11-21T00:55:37;18.23;;;7.97;;
70071;SDS011;57434;42.794;23.302;2023-11-21T00:56:38;20.27;;;8.00;;
70071;SDS011;57434;42.794;23.302;2023-11-21T00:57:40;19.10;;;9.02;;
70071;SDS011;57434;42.794;23.302;2023-11-21T00:58:41;18.48;;;7.63;;
70071;SDS011;57434;42.794;23.302;2023-11-21T00:59:43;22.23;;;8.02;;
70071;SDS011;57434;42.794;23.302;2023-11-21T01:00:44;19.98;;;8.65;;
70071;SDS011;57434;42.794;23.302;2023-11-21T01:01:46;18.55;;;8.75;;
70071;SDS011;57434;42.794;23.302;2023-11-21T01:02:48;15.77;;;7.93;;
70071;SDS011;57434;42.794;23.302;2023-11-21T01:03:49;19.63;;;9.55;;
70071;SDS011;57434;42.794;23.302;2023-11-21T01:04:51;19.80;;;8.98;;
70071;SDS011;57434;42.794;23.302;2023-11-21T01:05:53;18.80;;;9.10;;
70071;SDS011;57434;42.794;23.302;2023-11-21T01:06:54;20.17;;;9.93;;
70071;SDS011;57434;42.794;23.302;2023-11-21T01:07:56;18.80;;;8.65;;
70071;SDS011;57434;42.794;23.302;2023-11-21T01:08:57;16.35;;;8.20;;
70071;SDS011;57434;42.794;23.302;2023-11-21T01:09:59;20.67;;;9.02;;
70071;SDS011;57434;42.794;23.302;2023-11-21T01:11:00;16.75;;;8.27;;
70071;SDS011;57434;42.794;23.302;2023-11-21T01:12:02;20.92;;;7.65;;
70071;SDS011;57434;42.794;23.302;2023-11-21T01:13:04;16.70;;;7.97;;
70071;SDS011;57434;42.794;23.302;2023-11-21T01:14:05;17.30;;;7.70;;
70071;SDS011;57434;42.794;23.302;2023-11-21T01:15:07;18.60;;;8.10;;
70071;SDS011;57434;42.794;23.302;2023-11-21T01:16:08;19.67;;;8.00;;
70071;SDS011;57434;42.794;23.302;2023-11-21T01:17:10;19.95;;;8.60;;
70071;SDS011;57434;42.794;23.302;2023-11-21T01:18:11;19.63;;;9.48;;
70071;SDS011;57434;42.794;23.302;2023-11-21T01:19:13;20.95;;;9.98;;
70071;SDS011;57434;42.794;23.302;2023-11-21T01:20:15;21.73;;;8.60;;
70071;SDS011;57434;42.794;23.302;2023-11-21T01:21:17;19.13;;;9.55;;
70071;SDS011;57434;42.794;23.302;2023-11-21T01:22:18;24.10;;;10.63;;
70071;SDS011;57434;42.794;23.302;2023-11-21T01:23:20;19.98;;;9.70;;
70071;SDS011;57434;42.794;23.302;2023-11-21T01:24:21;17.27;;;9.27;;
70071;SDS011;57434;42.794;23.302;2023-11-21T01:25:23;20.15;;;10.02;;
70071;SDS011;57434;42.794;23.302;2023-11-21T01:26:24;22.87;;;10.37;;
70071;SDS011;57434;42.794;23.302;2023-11-21T01:27:26;20.05;;;10.02;;
70071;SDS011;57434;42.794;23.302;2023-11-21T01:28:27;21.80;;;10.25;;
70071;SDS011;57434;42.794;23.302;2023-11-21T01:29:29;23.92;;;11.50;;
70071;SDS011;57434;42.794;23.302;2023-11-21T01:30:31;21.98;;;10.93;;
70071;SDS011;57434;42.794;23.302;2023-11-21T01:31:32;20.27;;;10.25;;
70071;SDS011;57434;42.794;23.302;2023-11-21T01:32:35;22.98;;;10.32;;
70071;SDS011;57434;42.794;23.302;2023-11-21T01:33:37;24.40;;;11.05;;
70071;SDS011;57434;42.794;23.302;2023-11-21T01:34:38;22.27;;;10.75;;
70071;SDS011;57434;42.794;23.302;2023-11-21T01:35:40;25.83;;;11.50;;
70071;SDS011;57434;42.794;23.302;2023-11-21T01:36:42;28.37;;;10.20;;
70071;SDS011;57434;42.794;23.302;2023-11-21T01:37:43;25.45;;;10.98;;
70071;SDS011;57434;42.794;23.302;2023-11-21T01:38:45;23.38;;;10.77;;
70071;SDS011;57434;42.794;23.302;2023-11-21T01:39:47;24.48;;;11.15;;
70071;SDS011;57434;42.794;23.302;2023-11-21T01:40:48;22.38;;;10.40;;
70071;SDS011;57434;42.794;23.302;2023-11-21T01:41:50;18.92;;;10.23;;
70071;SDS011;57434;42.794;23.302;2023-11-21T01:42:53;25.20;;;10.77;;
70071;SDS011;57434;42.794;23.302;2023-11-21T01:43:54;25.10;;;10.48;;
70071;SDS011;57434;42.794;23.302;2023-11-21T01:44:56;18.77;;;9.10;;
70071;SDS011;57434;42.794;23.302;2023-11-21T01:45:58;20.02;;;9.60;;
70071;SDS011;57434;42.794;23.302;2023-11-21T01:46:59;18.30;;;9.30;;
70071;SDS011;57434;42.794;23.302;2023-11-21T01:48:01;19.33;;;8.85;;
70071;SDS011;57434;42.794;23.302;2023-11-21T01:49:03;21.23;;;9.23;;
70071;SDS011;57434;42.794;23.302;2023-11-21T01:50:06;23.08;;;10.32;;
70071;SDS011;57434;42.794;23.302;2023-11-21T01:51:07;22.75;;;10.20;;
70071;SDS011;57434;42.794;23.302;2023-11-21T01:52:09;24.10;;;10.45;;
70071;SDS011;57434;42.794;23.302;2023-11-21T01:53:11;25.75;;;11.63;;
70071;SDS011;57434;42.794;23.302;2023-11-21T01:54:14;20.40;;;10.55;;
70071;SDS011;57434;42.794;23.302;2023-11-21T01:55:18;20.92;;;9.60;;
70071;SDS011;57434;42.794;23.302;2023-11-21T01:56:28;22.27;;;9.40;;
70071;SDS011;57434;42.794;23.302;2023-11-21T01:57:30;25.93;;;10.17;;
70071;SDS011;57434;42.794;23.302;2023-11-21T01:58:32;22.30;;;9.50;;
70071;SDS011;57434;42.794;23.302;2023-11-21T01:59:34;20.80;;;9.98;;
70071;SDS011;57434;42.794;23.302;2023-11-21T02:00:36;22.35;;;10.90;;
70071;SDS011;57434;42.794;23.302;2023-11-21T02:01:37;25.65;;;10.18;;
70071;SDS011;57434;42.794;23.302;2023-11-21T02:02:39;22.95;;;10.15;;
70071;SDS011;57434;42.794;23.302;2023-11-21T02:03:40;22.58;;;10.45;;
70071;SDS011;57434;42.794;23.302;2023-11-21T02:04:42;21.55;;;10.90;;
70071;SDS011;57434;42.794;23.302;2023-11-21T02:05:44;26.65;;;11.52;;
70071;SDS011;57434;42.794;23.302;2023-11-21T02:08:23;33.30;;;14.57;;
70071;SDS011;57434;42.794;23.302;2023-11-21T02:09:28;35.08;;;13.38;;
70071;SDS011;57434;42.794;23.302;2023-11-21T02:10:30;31.08;;;13.55;;
70071;SDS011;57434;42.794;23.302;2023-11-21T02:11:32;28.10;;;13.38;;
70071;SDS011;57434;42.794;23.302;2023-11-21T02:12:34;28.35;;;12.10;;
70071;SDS011;57434;42.794;23.302;2023-11-21T02:13:35;25.25;;;12.02;;
70071;SDS011;57434;42.794;23.302;2023-11-21T02:14:37;30.65;;;11.60;;
70071;SDS011;57434;42.794;23.302;2023-11-21T02:15:39;34.03;;;13.30;;
70071;SDS011;57434;42.794;23.302;2023-11-21T02:16:40;31.92;;;13.27;;
70071;SDS011;57434;42.794;23.302;2023-11-21T02:17:42;36.03;;;14.07;;
70071;SDS011;57434;42.794;23.302;2023-11-21T02:18:44;31.40;;;14.57;;
70071;SDS011;57434;42.794;23.302;2023-11-21T02:19:45;33.22;;;13.13;;
70071;SDS011;57434;42.794;23.302;2023-11-21T02:20:47;27.80;;;11.73;;
70071;SDS011;57434;42.794;23.302;2023-11-21T02:21:49;31.10;;;13.07;;
70071;SDS011;57434;42.794;23.302;2023-11-21T02:23:52;26.30;;;11.43;;
70071;SDS011;57434;42.794;23.302;2023-11-21T02:24:54;31.80;;;13.40;;
70071;SDS011;57434;42.794;23.302;2023-11-21T02:25:56;32.05;;;11.80;;
70071;SDS011;57434;42.794;23.302;2023-11-21T02:26:57;30.38;;;13.25;;
70071;SDS011;57434;42.794;23.302;2023-11-21T02:28:00;27.77;;;11.57;;
70071;SDS011;57434;42.794;23.302;2023-11-21T02:29:02;24.77;;;10.77;;
70071;SDS011;57434;42.794;23.302;2023-11-21T02:30:04;26.85;;;11.68;;
70071;SDS011;57434;42.794;23.302;2023-11-21T02:31:05;26.20;;;12.88;;
70071;SDS011;57434;42.794;23.302;2023-11-21T02:32:07;25.50;;;12.05;;
70071;SDS011;57434;42.794;23.302;2023-11-21T02:33:08;28.85;;;12.13;;
70071;SDS011;57434;42.794;23.302;2023-11-21T02:34:10;25.45;;;11.00;;
70071;SDS011;57434;42.794;23.302;2023-11-21T02:35:12;27.40;;;13.23;;
70071;SDS011;57434;42.794;23.302;2023-11-21T02:36:13;30.13;;;11.82;;
70071;SDS011;57434;42.794;23.302;2023-11-21T02:37:15;27.48;;;12.10;;
70071;SDS011;57434;42.794;23.302;2023-11-21T02:38:16;27.63;;;11.52;;
70071;SDS011;57434;42.794;23.302;2023-11-21T02:39:18;23.37;;;11.20;;
70071;SDS011;57434;42.794;23.302;2023-11-21T02:40:20;26.00;;;11.48;;
70071;SDS011;57434;42.794;23.302;2023-11-21T02:41:21;25.65;;;12.15;;
70071;SDS011;57434;42.794;23.302;2023-11-21T02:42:23;28.15;;;12.98;;
70071;SDS011;57434;42.794;23.302;2023-11-21T02:43:24;28.67;;;12.68;;
70071;SDS011;57434;42.794;23.302;2023-11-21T02:44:26;21.80;;;11.40;;
70071;SDS011;57434;42.794;23.302;2023-11-21T02:45:27;27.10;;;12.27;;
70071;SDS011;57434;42.794;23.302;2023-11-21T02:46:29;27.75;;;13.15;;
70071;SDS011;57434;42.794;23.302;2023-11-21T02:47:30;24.67;;;12.45;;
70071;SDS011;57434;42.794;23.302;2023-11-21T02:48:32;29.50;;;13.07;;
70071;SDS011;57434;42.794;23.302;2023-11-21T02:49:34;27.30;;;12.90;;
70071;SDS011;57434;42.794;23.302;2023-11-21T02:50:35;27.27;;;12.43;;
70071;SDS011;57434;42.794;23.302;2023-11-21T02:51:37;32.65;;;14.48;;
70071;SDS011;57434;42.794;23.302;2023-11-21T02:52:38;32.55;;;15.63;;
70071;SDS011;57434;42.794;23.302;2023-11-21T02:53:40;41.80;;;16.55;;
70071;SDS011;57434;42.794;23.302;2023-11-21T02:54:41;39.28;;;16.10;;
70071;SDS011;57434;42.794;23.302;2023-11-21T02:55:43;35.85;;;16.52;;
70071;SDS011;57434;42.794;23.302;2023-11-21T02:56:45;30.35;;;14.35;;
70071;SDS011;57434;42.794;23.302;2023-11-21T02:57:46;28.45;;;14.13;;
70071;SDS011;57434;42.794;23.302;2023-11-21T02:58:48;30.02;;;13.55;;
70071;SDS011;57434;42.794;23.302;2023-11-21T02:59:50;26.03;;;12.43;;
70071;SDS011;57434;42.794;23.302;2023-11-21T03:04:07;24.58;;;11.25;;
70071;SDS011;57434;42.794;23.302;2023-11-21T03:05:09;25.65;;;10.02;;
70071;SDS011;57434;42.794;23.302;2023-11-21T03:06:10;21.20;;;9.43;;
70071;SDS011;57434;42.794;23.302;2023-11-21T03:07:12;24.77;;;10.90;;
70071;SDS011;57434;42.794;23.302;2023-11-21T03:08:14;20.45;;;10.20;;
70071;SDS011;57434;42.794;23.302;2023-11-21T03:09:15;20.92;;;10.48;;
70071;SDS011;57434;42.794;23.302;2023-11-21T03:10:17;18.10;;;9.10;;
70071;SDS011;57434;42.794;23.302;2023-11-21T03:11:18;20.03;;;9.53;;
70071;SDS011;57434;42.794;23.302;2023-11-21T03:12:20;21.88;;;9.45;;
70071;SDS011;57434;42.794;23.302;2023-11-21T03:13:21;22.58;;;8.98;;
70071;SDS011;57434;42.794;23.302;2023-11-21T03:14:23;21.60;;;9.13;;
70071;SDS011;57434;42.794;23.302;2023-11-21T03:15:25;21.65;;;9.63;;
70071;SDS011;57434;42.794;23.302;2023-11-21T03:16:26;17.83;;;8.45;;
70071;SDS011;57434;42.794;23.302;2023-11-21T03:17:28;19.80;;;8.55;;
70071;SDS011;57434;42.794;23.302;2023-11-21T03:18:29;19.20;;;8.68;;
70071;SDS011;57434;42.794;23.302;2023-11-21T03:19:31;18.33;;;8.18;;
70071;SDS011;57434;42.794;23.302;2023-11-21T03:20:32;18.48;;;9.20;;
70071;SDS011;57434;42.794;23.302;2023-11-21T04:05:23;21.70;;;9.77;;
70071;SDS011;57434;42.794;23.302;2023-11-21T04:06:25;23.33;;;9.73;;
70071;SDS011;57434;42.794;23.302;2023-11-21T04:07:26;21.10;;;8.80;;
70071;SDS011;57434;42.794;23.302;2023-11-21T04:08:28;20.97;;;8.70;;
70071;SDS011;57434;42.794;23.302;2023-11-21T04:09:30;20.05;;;8.32;;
70071;SDS011;57434;42.794;23.302;2023-11-21T04:10:31;17.48;;;7.85;;
70071;SDS011;57434;42.794;23.302;2023-11-21T04:11:33;21.05;;;8.98;;
70071;SDS011;57434;42.794;23.302;2023-11-21T04:12:35;18.48;;;8.90;;
70071;SDS011;57434;42.794;23.302;2023-11-21T04:13:36;18.20;;;8.85;;
70071;SDS011;57434;42.794;23.302;2023-11-21T04:14:38;18.95;;;8.88;;
70071;SDS011;57434;42.794;23.302;2023-11-21T04:15:39;18.02;;;8.52;;
70071;SDS011;57434;42.794;23.302;2023-11-21T04:16:41;20.15;;;9.85;;
70071;SDS011;57434;42.794;23.302;2023-11-21T04:17:43;17.80;;;9.10;;
70071;SDS011;57434;42.794;23.302;2023-11-21T04:18:44;16.67;;;9.17;;
70071;SDS011;57434;42.794;23.302;2023-11-21T04:19:46;17.48;;;8.52;;
70071;SDS011;57434;42.794;23.302;2023-11-21T04:20:51;20.35;;;10.05;;
70071;SDS011;57434;42.794;23.302;2023-11-21T04:21:52;16.67;;;8.95;;
70071;SDS011;57434;42.794;23.302;2023-11-21T04:22:54;18.80;;;9.82;;
70071;SDS011;57434;42.794;23.302;2023-11-21T04:23:55;19.08;;;9.70;;
70071;SDS011;57434;42.794;23.302;2023-11-21T04:24:57;21.70;;;10.95;;
70071;SDS011;57434;42.794;23.302;2023-11-21T04:25:58;20.77;;;10.60;;
70071;SDS011;57434;42.794;23.302;2023-11-21T04:27:00;20.50;;;10.10;;
70071;SDS011;57434;42.794;23.302;2023-11-21T04:28:02;21.63;;;10.10;;
70071;SDS011;57434;42.794;23.302;2023-11-21T04:29:03;20.03;;;10.37;;
70071;SDS011;57434;42.794;23.302;2023-11-21T04:30:05;22.45;;;11.25;;
70071;SDS011;57434;42.794;23.302;2023-11-21T04:31:07;22.67;;;10.63;;
70071;SDS011;57434;42.794;23.302;2023-11-21T04:32:08;19.80;;;9.85;;
70071;SDS011;57434;42.794;23.302;2023-11-21T04:33:10;24.23;;;11.65;;
70071;SDS011;57434;42.794;23.302;2023-11-21T04:34:11;26.02;;;11.40;;
70071;SDS011;57434;42.794;23.302;2023-11-21T04:35:13;26.05;;;11.82;;
70071;SDS011;57434;42.794;23.302;2023-11-21T04:36:14;20.08;;;9.80;;
70071;SDS011;57434;42.794;23.302;2023-11-21T04:37:16;21.65;;;10.55;;
70071;SDS011;57434;42.794;23.302;2023-11-21T04:38:18;18.83;;;9.32;;
70071;SDS011;57434;42.794;23.302;2023-11-21T04:39:19;18.43;;;10.10;;
70071;SDS011;57434;42.794;23.302;2023-11-21T04:40:21;20.73;;;8.50;;
70071;SDS011;57434;42.794;23.302;2023-11-21T04:41:22;23.05;;;10.00;;
70071;SDS011;57434;42.794;23.302;2023-11-21T04:42:24;23.13;;;10.93;;
70071;SDS011;57434;42.794;23.302;2023-11-21T04:43:25;24.63;;;13.05;;
70071;SDS011;57434;42.794;23.302;2023-11-21T04:44:27;29.77;;;13.20;;
70071;SDS011;57434;42.794;23.302;2023-11-21T04:45:29;30.25;;;14.45;;
70071;SDS011;57434;42.794;23.302;2023-11-21T04:46:30;29.35;;;13.52;;
70071;SDS011;57434;42.794;23.302;2023-11-21T04:47:32;29.33;;;13.90;;
70071;SDS011;57434;42.794;23.302;2023-11-21T04:48:33;27.65;;;12.98;;
70071;SDS011;57434;42.794;23.302;2023-11-21T04:49:35;24.30;;;12.47;;
70071;SDS011;57434;42.794;23.302;2023-11-21T04:50:37;27.95;;;13.48;;
70071;SDS011;57434;42.794;23.302;2023-11-21T04:51:39;30.80;;;13.93;;
70071;SDS011;57434;42.794;23.302;2023-11-21T04:52:40;27.27;;;14.15;;
70071;SDS011;57434;42.794;23.302;2023-11-21T04:53:42;27.15;;;12.27;;
70071;SDS011;57434;42.794;23.302;2023-11-21T04:54:43;20.83;;;10.55;;
70071;SDS011;57434;42.794;23.302;2023-11-21T04:55:45;26.23;;;13.65;;
70071;SDS011;57434;42.794;23.302;2023-11-21T04:56:47;31.13;;;16.15;;
70071;SDS011;57434;42.794;23.302;2023-11-21T04:57:48;26.40;;;13.30;;
70071;SDS011;57434;42.794;23.302;2023-11-21T04:58:50;26.52;;;13.93;;
70071;SDS011;57434;42.794;23.302;2023-11-21T04:59:51;24.27;;;13.97;;
70071;SDS011;57434;42.794;23.302;2023-11-21T05:00:53;22.92;;;12.07;;
70071;SDS011;57434;42.794;23.302;2023-11-21T05:01:55;22.08;;;11.57;;
70071;SDS011;57434;42.794;23.302;2023-11-21T05:02:56;20.85;;;11.25;;
70071;SDS011;57434;42.794;23.302;2023-11-21T05:03:58;28.15;;;14.48;;
70071;SDS011;57434;42.794;23.302;2023-11-21T05:05:00;43.25;;;17.23;;
70071;SDS011;57434;42.794;23.302;2023-11-21T05:06:02;39.72;;;20.10;;
70071;SDS011;57434;42.794;23.302;2023-11-21T05:07:04;35.00;;;16.63;;
70071;SDS011;57434;42.794;23.302;2023-11-21T05:08:05;31.40;;;15.23;;
70071;SDS011;57434;42.794;23.302;2023-11-21T05:09:07;29.48;;;13.82;;
70071;SDS011;57434;42.794;23.302;2023-11-21T05:10:09;27.47;;;13.60;;
70071;SDS011;57434;42.794;23.302;2023-11-21T05:11:11;23.80;;;10.60;;
70071;SDS011;57434;42.794;23.302;2023-11-21T05:12:12;21.08;;;9.75;;
70071;SDS011;57434;42.794;23.302;2023-11-21T05:13:14;20.42;;;9.88;;
70071;SDS011;57434;42.794;23.302;2023-11-21T05:14:15;21.20;;;10.15;;
70071;SDS011;57434;42.794;23.302;2023-11-21T05:15:17;21.98;;;10.95;;
70071;SDS011;57434;42.794;23.302;2023-11-21T05:16:19;28.90;;;13.07;;
70071;SDS011;57434;42.794;23.302;2023-11-21T05:17:21;21.88;;;11.30;;
70071;SDS011;57434;42.794;23.302;2023-11-21T05:18:22;25.27;;;12.02;;
70071;SDS011;57434;42.794;23.302;2023-11-21T05:19:24;19.40;;;9.50;;
70071;SDS011;57434;42.794;23.302;2023-11-21T05:20:25;18.67;;;9.77;;
70071;SDS011;57434;42.794;23.302;2023-11-21T05:21:27;22.58;;;10.50;;
70071;SDS011;57434;42.794;23.302;2023-11-21T05:22:29;18.58;;;9.35;;
70071;SDS011;57434;42.794;23.302;2023-11-21T05:23:31;15.85;;;8.90;;
70071;SDS011;57434;42.794;23.302;2023-11-21T05:24:32;18.00;;;8.50;;
70071;SDS011;57434;42.794;23.302;2023-11-21T05:25:34;20.60;;;8.57;;
70071;SDS011;57434;42.794;23.302;2023-11-21T05:26:37;20.85;;;9.20;;
70071;SDS011;57434;42.794;23.302;2023-11-21T05:27:39;21.77;;;9.90;;
70071;SDS011;57434;42.794;23.302;2023-11-21T05:28:41;23.65;;;8.60;;
70071;SDS011;57434;42.794;23.302;2023-11-21T05:29:42;18.48;;;8.75;;
70071;SDS011;57434;42.794;23.302;2023-11-21T05:30:44;19.60;;;8.67;;
70071;SDS011;57434;42.794;23.302;2023-11-21T05:31:46;16.92;;;8.38;;
70071;SDS011;57434;42.794;23.302;2023-11-21T05:32:47;18.98;;;7.88;;
70071;SDS011;57434;42.794;23.302;2023-11-21T05:33:49;17.85;;;7.97;;
70071;SDS011;57434;42.794;23.302;2023-11-21T05:34:51;17.58;;;7.32;;
70071;SDS011;57434;42.794;23.302;2023-11-21T05:35:53;16.45;;;8.45;;
70071;SDS011;57434;42.794;23.302;2023-11-21T05:36:54;19.23;;;7.38;;
70071;SDS011;57434;42.794;23.302;2023-11-21T05:37:56;13.20;;;6.20;;
70071;SDS011;57434;42.794;23.302;2023-11-21T05:38:58;13.35;;;6.18;;
70071;SDS011;57434;42.794;23.302;2023-11-21T05:39:59;15.18;;;6.35;;
70071;SDS011;57434;42.794;23.302;2023-11-21T05:41:01;13.07;;;6.30;;
70071;SDS011;57434;42.794;23.302;2023-11-21T05:42:03;16.13;;;7.68;;
70071;SDS011;57434;42.794;23.302;2023-11-21T05:43:04;18.52;;;7.28;;
70071;SDS011;57434;42.794;23.302;2023-11-21T05:44:06;18.20;;;7.03;;
70071;SDS011;57434;42.794;23.302;2023-11-21T05:45:08;16.00;;;8.25;;
70071;SDS011;57434;42.794;23.302;2023-11-21T05:46:09;19.45;;;8.38;;
70071;SDS011;57434;42.794;23.302;2023-11-21T05:47:11;15.70;;;7.80;;
70071;SDS011;57434;42.794;23.302;2023-11-21T05:48:13;16.65;;;8.00;;
70071;SDS011;57434;42.794;23.302;2023-11-21T05:49:15;15.88;;;6.95;;
70071;SDS011;57434;42.794;23.302;2023-11-21T05:50:16;17.48;;;7.80;;
70071;SDS011;57434;42.794;23.302;2023-11-21T05:51:18;15.80;;;7.63;;
70071;SDS011;57434;42.794;23.302;2023-11-21T05:52:20;17.08;;;8.43;;
70071;SDS011;57434;42.794;23.302;2023-11-21T05:53:21;19.33;;;9.93;;
70071;SDS011;57434;42.794;23.302;2023-11-21T05:54:23;17.10;;;8.57;;
70071;SDS011;57434;42.794;23.302;2023-11-21T05:55:24;24.30;;;9.38;;
70071;SDS011;57434;42.794;23.302;2023-11-21T05:57:33;18.63;;;9.32;;
70071;SDS011;57434;42.794;23.302;2023-11-21T05:58:35;17.23;;;8.65;;
70071;SDS011;57434;42.794;23.302;2023-11-21T05:59:37;20.58;;;7.93;;
70071;SDS011;57434;42.794;23.302;2023-11-21T06:00:38;17.70;;;8.10;;
70071;SDS011;57434;42.794;23.302;2023-11-21T06:01:40;17.17;;;8.57;;
70071;SDS011;57434;42.794;23.302;2023-11-21T06:02:41;18.83;;;8.60;;
70071;SDS011;57434;42.794;23.302;2023-11-21T06:03:43;18.80;;;8.68;;
70071;SDS011;57434;42.794;23.302;2023-11-21T06:04:44;21.02;;;10.10;;
70071;SDS011;57434;42.794;23.302;2023-11-21T06:05:46;22.25;;;9.50;;
70071;SDS011;57434;42.794;23.302;2023-11-21T06:06:48;20.38;;;10.10;;
70071;SDS011;57434;42.794;23.302;2023-11-21T06:07:50;22.40;;;10.07;;
70071;SDS011;57434;42.794;23.302;2023-11-21T06:08:52;18.45;;;9.63;;
70071;SDS011;57434;42.794;23.302;2023-11-21T06:09:53;16.83;;;8.50;;
70071;SDS011;57434;42.794;23.302;2023-11-21T06:10:55;17.95;;;8.93;;
70071;SDS011;57434;42.794;23.302;2023-11-21T06:11:56;20.57;;;8.63;;
70071;SDS011;57434;42.794;23.302;2023-11-21T06:12:58;17.30;;;8.15;;
70071;SDS011;57434;42.794;23.302;2023-11-21T06:14:04;15.80;;;7.88;;
70071;SDS011;57434;42.794;23.302;2023-11-21T06:15:06;15.93;;;8.35;;
70071;SDS011;57434;42.794;23.302;2023-11-21T06:16:08;15.70;;;7.18;;
70071;SDS011;57434;42.794;23.302;2023-11-21T06:17:09;14.80;;;7.00;;
70071;SDS011;57434;42.794;23.302;2023-11-21T06:18:11;15.52;;;7.38;;
70071;SDS011;57434;42.794;23.302;2023-11-21T06:19:16;12.15;;;6.47;;
70071;SDS011;57434;42.794;23.302;2023-11-21T06:20:18;15.35;;;6.65;;
70071;SDS011;57434;42.794;23.302;2023-11-21T06:21:20;14.65;;;6.18;;
70071;SDS011;57434;42.794;23.302;2023-11-21T06:22:21;13.07;;;5.63;;
70071;SDS011;57434;42.794;23.302;2023-11-21T06:23:23;18.55;;;7.22;;
70071;SDS011;57434;42.794;23.302;2023-11-21T06:24:24;15.23;;;6.70;;
70071;SDS011;57434;42.794;23.302;2023-11-21T06:25:26;17.15;;;6.47;;
70071;SDS011;57434;42.794;23.302;2023-11-21T06:26:27;13.52;;;6.25;;
70071;SDS011;57434;42.794;23.302;2023-11-21T06:27:29;15.25;;;6.03;;
70071;SDS011;57434;42.794;23.302;2023-11-21T06:28:30;15.95;;;6.68;;
70071;SDS011;57434;42.794;23.302;2023-11-21T06:29:32;12.02;;;5.50;;
70071;SDS011;57434;42.794;23.302;2023-11-21T06:30:34;13.68;;;5.50;;
70071;SDS011;57434;42.794;23.302;2023-11-21T06:31:35;11.68;;;5.63;;
70071;SDS011;57434;42.794;23.302;2023-11-21T06:32:37;16.50;;;8.07;;
70071;SDS011;57434;42.794;23.302;2023-11-21T06:33:39;16.50;;;7.15;;
70071;SDS011;57434;42.794;23.302;2023-11-21T06:34:41;14.70;;;7.18;;
70071;SDS011;57434;42.794;23.302;2023-11-21T06:35:42;13.70;;;6.47;;
70071;SDS011;57434;42.794;23.302;2023-11-21T06:36:44;14.23;;;6.47;;
70071;SDS011;57434;42.794;23.302;2023-11-21T06:37:45;16.02;;;7.43;;
70071;SDS011;57434;42.794;23.302;2023-11-21T06:38:47;13.82;;;7.13;;
70071;SDS011;57434;42.794;23.302;2023-11-21T06:39:49;18.05;;;8.15;;
70071;SDS011;57434;42.794;23.302;2023-11-21T06:40:50;17.88;;;7.72;;
70071;SDS011;57434;42.794;23.302;2023-11-21T06:41:52;11.65;;;6.50;;
70071;SDS011;57434;42.794;23.302;2023-11-21T06:42:54;14.33;;;7.30;;
70071;SDS011;57434;42.794;23.302;2023-11-21T06:43:55;18.70;;;9.80;;
70071;SDS011;57434;42.794;23.302;2023-11-21T06:44:57;20.63;;;10.65;;
70071;SDS011;57434;42.794;23.302;2023-11-21T06:45:58;28.30;;;14.27;;
70071;SDS011;57434;42.794;23.302;2023-11-21T06:47:00;29.33;;;15.77;;
70071;SDS011;57434;42.794;23.302;2023-11-21T06:48:02;30.55;;;16.25;;
70071;SDS011;57434;42.794;23.302;2023-11-21T06:49:04;28.13;;;15.32;;
70071;SDS011;57434;42.794;23.302;2023-11-21T06:50:05;28.25;;;13.60;;